createdAt,value
2023-05-24T00:02:15.364Z,6.90
2023-05-24T00:05:03.769Z,6.88
2023-05-24T00:07:51.927Z,6.80
2023-05-24T00:10:40.048Z,6.73
2023-05-24T00:13:28.213Z,6.69
2023-05-24T00:16:16.540Z,6.66
2023-05-24T00:19:06.003Z,6.64
2023-05-24T00:21:54.249Z,6.61
2023-05-24T00:24:42.504Z,6.56
2023-05-24T00:27:30.578Z,6.52
2023-05-24T00:30:18.755Z,6.43
2023-05-24T00:33:07.237Z,6.41
2023-05-24T00:35:57.662Z,6.36
2023-05-24T00:38:45.856Z,6.35
2023-05-24T00:41:34.057Z,6.36
2023-05-24T00:44:22.194Z,6.36
2023-05-24T00:47:10.651Z,6.32
2023-05-24T00:49:59.010Z,6.23
2023-05-24T00:52:50.725Z,6.21
2023-05-24T00:55:39.151Z,6.15
2023-05-24T00:58:31.144Z,6.13
2023-05-24T01:01:19.203Z,6.15
2023-05-24T01:04:07.737Z,6.17
2023-05-24T01:07:10.969Z,6.11
2023-05-24T01:10:10.062Z,6.13
2023-05-24T01:13:05.696Z,6.07
2023-05-24T01:16:00.708Z,5.98
2023-05-24T01:18:53.933Z,5.94
2023-05-24T01:22:02.427Z,5.93
2023-05-24T01:25:04.615Z,5.90
2023-05-24T01:27:54.920Z,5.95
2023-05-24T01:30:44.020Z,5.81
2023-05-24T01:33:33.360Z,5.79
2023-05-24T01:36:21.881Z,5.78
2023-05-24T01:39:10.245Z,5.78
2023-05-24T01:42:08.600Z,5.79
2023-05-24T01:45:06.938Z,5.69
2023-05-24T01:48:11.349Z,5.70
2023-05-24T01:51:01.480Z,5.68
2023-05-24T01:53:51.622Z,5.64
2023-05-24T01:56:42.433Z,5.64
2023-05-24T01:59:33.125Z,5.64
2023-05-24T02:02:22.927Z,5.64
2023-05-24T02:05:12.153Z,5.64
2023-05-24T02:08:00.375Z,5.59
2023-05-24T02:10:48.573Z,5.62
2023-05-24T02:13:36.597Z,5.62
2023-05-24T02:16:26.744Z,5.62
2023-05-24T02:19:17.244Z,5.59
2023-05-24T02:22:06.328Z,5.55
2023-05-24T02:24:54.615Z,5.54
2023-05-24T02:27:47.014Z,5.51
2023-05-24T02:30:35.363Z,5.42
2023-05-24T02:33:25.467Z,5.46
2023-05-24T02:36:14.918Z,5.45
2023-05-24T02:39:04.029Z,5.40
2023-05-24T02:41:52.272Z,5.41
2023-05-24T02:44:42.610Z,5.40
2023-05-24T02:47:30.873Z,5.40
2023-05-24T02:50:19.142Z,5.39
2023-05-24T02:53:08.805Z,5.35
2023-05-24T02:55:56.912Z,5.35
2023-05-24T02:58:45.106Z,5.42
2023-05-24T03:01:35.583Z,5.38
2023-05-24T03:04:23.574Z,5.42
2023-05-24T03:07:11.775Z,5.37
2023-05-24T03:10:01.288Z,5.41
2023-05-24T03:12:49.504Z,5.49
2023-05-24T03:15:37.566Z,5.51
2023-05-24T03:18:26.703Z,5.54
2023-05-24T03:21:14.675Z,5.66
2023-05-24T03:24:02.872Z,5.70
2023-05-24T03:26:52.396Z,5.83
2023-05-24T03:29:40.491Z,5.90
2023-05-24T03:32:28.552Z,5.97
2023-05-24T03:35:16.594Z,6.09
2023-05-24T03:38:04.700Z,6.08
2023-05-24T03:40:52.851Z,6.12
2023-05-24T03:43:42.218Z,6.08
2023-05-24T03:46:30.358Z,6.04
2023-05-24T03:49:18.463Z,6.02
2023-05-24T03:52:06.610Z,5.98
2023-05-24T03:54:55.044Z,6.01
2023-05-24T03:57:43.766Z,6.05
2023-05-24T04:00:33.152Z,6.11
2023-05-24T04:03:21.337Z,6.22
2023-05-24T04:06:09.629Z,6.28
2023-05-24T04:08:58.152Z,6.40
2023-05-24T04:11:46.286Z,6.55
2023-05-24T04:14:35.246Z,6.64
2023-05-24T04:17:25.708Z,6.81
2023-05-24T04:20:15.106Z,6.93
2023-05-24T04:23:03.199Z,7.05
2023-05-24T04:25:51.235Z,7.18
2023-05-24T04:28:39.998Z,7.37
2023-05-24T04:31:29.528Z,7.43
2023-05-24T04:34:22.321Z,7.60
2023-05-24T04:37:10.792Z,7.62
2023-05-24T04:39:58.989Z,7.71
2023-05-24T04:42:47.038Z,7.85
2023-05-24T04:45:35.138Z,8.00
2023-05-24T04:48:24.517Z,8.19
2023-05-24T04:51:14.027Z,8.44
2023-05-24T04:54:08.615Z,8.70
2023-05-24T04:57:10.962Z,8.80
2023-05-24T04:59:58.953Z,8.89
2023-05-24T05:02:47.112Z,8.89
2023-05-24T05:05:35.657Z,8.88
2023-05-24T05:08:25.084Z,8.92
2023-05-24T05:11:13.106Z,9.18
2023-05-24T05:14:01.346Z,9.36
2023-05-24T05:16:49.556Z,9.63
2023-05-24T05:19:37.993Z,9.91
2023-05-24T05:22:26.283Z,10.04
2023-05-24T05:25:15.953Z,10.19
2023-05-24T05:28:03.960Z,10.28
2023-05-24T05:30:52.293Z,10.29
2023-05-24T05:33:40.341Z,10.42
2023-05-24T05:36:28.973Z,10.51
2023-05-24T05:39:17.002Z,10.56
2023-05-24T05:42:07.452Z,10.41
2023-05-24T05:44:56.006Z,10.45
2023-05-24T05:47:45.032Z,10.63
2023-05-24T05:50:33.203Z,10.64
2023-05-24T05:53:21.255Z,10.70
2023-05-24T05:56:09.258Z,10.71
2023-05-24T05:58:58.614Z,10.69
2023-05-24T06:01:48.928Z,10.77
2023-05-24T06:04:36.915Z,10.92
2023-05-24T06:07:24.936Z,10.91
2023-05-24T06:10:13.365Z,11.13
2023-05-24T06:13:02.846Z,11.18
2023-05-24T06:15:52.775Z,11.20
2023-05-24T06:18:47.342Z,11.30
2023-05-24T06:21:47.206Z,11.33
2023-05-24T06:24:35.359Z,11.46
2023-05-24T06:27:23.653Z,11.27
2023-05-24T06:30:13.021Z,11.37
2023-05-24T06:33:02.710Z,11.34
2023-05-24T06:35:50.952Z,11.30
2023-05-24T06:38:39.104Z,11.25
2023-05-24T06:41:28.133Z,11.27
2023-05-24T06:44:16.462Z,11.43
2023-05-24T06:47:05.823Z,11.68
2023-05-24T06:49:55.780Z,11.80
2023-05-24T06:52:44.169Z,11.97
2023-05-24T06:55:32.136Z,11.94
2023-05-24T06:58:20.165Z,11.93
2023-05-24T07:01:08.730Z,11.94
2023-05-24T07:03:57.210Z,12.06
2023-05-24T07:06:46.843Z,12.30
2023-05-24T07:09:34.888Z,12.21
2023-05-24T07:12:23.510Z,12.46
2023-05-24T07:15:11.700Z,12.62
2023-05-24T07:18:00.367Z,12.36
2023-05-24T07:20:48.592Z,12.52
2023-05-24T07:23:38.385Z,12.51
2023-05-24T07:26:26.520Z,12.40
2023-05-24T07:29:14.632Z,12.31
2023-05-24T07:32:02.702Z,12.50
2023-05-24T07:34:51.394Z,12.78
2023-05-24T07:37:39.452Z,12.68
2023-05-24T07:40:28.870Z,12.92
2023-05-24T07:43:16.937Z,13.02
2023-05-24T07:46:05.301Z,13.16
2023-05-24T07:48:53.480Z,12.82
2023-05-24T07:51:41.860Z,13.25
2023-05-24T07:54:29.945Z,13.30
2023-05-24T07:57:19.730Z,13.56
2023-05-24T08:00:12.654Z,13.52
2023-05-24T08:03:01.292Z,13.50
2023-05-24T08:05:49.436Z,13.31
2023-05-24T08:08:37.476Z,13.52
2023-05-24T08:11:25.881Z,13.09
2023-05-24T08:14:15.354Z,13.31
2023-05-24T08:17:03.696Z,13.24
2023-05-24T08:19:52.120Z,13.49
2023-05-24T08:22:40.182Z,13.25
2023-05-24T08:25:28.258Z,13.15
2023-05-24T08:28:16.976Z,13.03
2023-05-24T08:31:07.325Z,13.14
2023-05-24T08:33:57.601Z,13.16
2023-05-24T08:36:45.901Z,13.45
2023-05-24T08:39:34.012Z,13.65
2023-05-24T08:42:23.037Z,13.51
2023-05-24T08:45:13.371Z,13.59
2023-05-24T08:48:03.972Z,13.57
2023-05-24T08:50:53.272Z,13.75
2023-05-24T08:53:48.879Z,13.86
2023-05-24T08:56:39.075Z,14.79
2023-05-24T08:59:27.216Z,15.14
2023-05-24T09:02:16.404Z,15.09
2023-05-24T09:05:10.585Z,15.82
2023-05-24T09:08:02.040Z,16.28
2023-05-24T09:10:55.274Z,16.00
2023-05-24T09:13:46.241Z,16.34
2023-05-24T09:16:34.389Z,16.00
2023-05-24T09:19:23.074Z,16.20
2023-05-24T09:22:14.167Z,16.03
2023-05-24T09:25:02.538Z,16.55
2023-05-24T09:27:52.126Z,16.03
2023-05-24T09:30:40.658Z,16.20
2023-05-24T09:33:32.757Z,16.93
2023-05-24T09:36:20.902Z,16.59
2023-05-24T09:39:11.545Z,16.62
2023-05-24T09:41:59.608Z,16.75
2023-05-24T09:44:47.844Z,17.09
2023-05-24T09:47:38.547Z,16.67
2023-05-24T09:50:27.645Z,15.85
2023-05-24T09:53:19.196Z,15.19
2023-05-24T09:56:09.465Z,16.02
2023-05-24T09:58:57.977Z,16.49
2023-05-24T10:01:46.547Z,16.67
2023-05-24T10:04:34.978Z,16.20
2023-05-24T10:07:23.451Z,16.55
2023-05-24T10:10:12.240Z,15.86
2023-05-24T10:13:02.966Z,15.83
2023-05-24T10:15:51.304Z,15.99
2023-05-24T10:18:40.108Z,16.86
2023-05-24T10:21:32.870Z,16.51
2023-05-24T10:24:26.918Z,16.48
2023-05-24T10:27:18.974Z,16.26
2023-05-24T10:30:18.117Z,16.25
2023-05-24T10:33:08.512Z,16.26
2023-05-24T10:35:57.678Z,16.93
2023-05-24T10:38:47.870Z,16.38
2023-05-24T10:41:40.301Z,16.28
2023-05-24T10:44:31.948Z,16.44
2023-05-24T10:47:22.901Z,16.41
2023-05-24T10:50:19.112Z,16.28
2023-05-24T10:53:14.539Z,16.70
2023-05-24T10:56:04.979Z,16.49
2023-05-24T10:59:02.435Z,16.19
2023-05-24T11:01:56.390Z,16.60
2023-05-24T11:04:49.489Z,16.09
2023-05-24T11:07:42.926Z,16.22
2023-05-24T11:10:31.966Z,15.96
2023-05-24T11:13:20.918Z,16.31
2023-05-24T11:16:09.118Z,16.19
2023-05-24T11:18:57.440Z,15.66
2023-05-24T11:21:48.971Z,15.92
2023-05-24T11:24:38.231Z,16.10
2023-05-24T11:27:27.645Z,15.96
2023-05-24T11:30:16.761Z,16.01
2023-05-24T11:33:05.112Z,16.43
2023-05-24T11:35:54.505Z,16.70
2023-05-24T11:38:43.978Z,16.79
2023-05-24T11:41:32.090Z,16.19
2023-05-24T11:44:20.605Z,15.72
2023-05-24T11:47:09.447Z,15.68
2023-05-24T11:49:57.524Z,16.15
2023-05-24T11:52:45.543Z,16.54
2023-05-24T11:55:34.975Z,16.75
2023-05-24T11:58:24.801Z,16.81
2023-05-24T12:01:24.855Z,16.74
2023-05-24T12:04:13.044Z,16.94
2023-05-24T12:07:05.269Z,16.19
2023-05-24T12:09:53.500Z,16.45
2023-05-24T12:12:46.352Z,16.29
2023-05-24T12:15:34.860Z,16.72
2023-05-24T12:18:24.340Z,16.16
2023-05-24T12:21:13.011Z,16.81
2023-05-24T12:24:09.983Z,17.14
2023-05-24T12:27:01.938Z,16.49
2023-05-24T12:29:51.535Z,16.44
2023-05-24T12:32:40.574Z,16.42
2023-05-24T12:35:28.807Z,16.87
2023-05-24T12:38:25.171Z,16.64
2023-05-24T12:41:14.260Z,16.67
2023-05-24T12:44:02.378Z,16.24
2023-05-24T12:46:53.472Z,16.66
2023-05-24T12:49:41.638Z,16.55
2023-05-24T12:52:29.995Z,16.35
2023-05-24T12:55:17.985Z,16.32
2023-05-24T12:58:08.165Z,16.31
2023-05-24T13:00:56.380Z,16.19
2023-05-24T13:03:46.200Z,16.86
2023-05-24T13:06:34.226Z,16.50
2023-05-24T13:09:23.554Z,16.47
2023-05-24T13:12:12.544Z,16.48
2023-05-24T13:15:01.425Z,16.96
2023-05-24T13:17:49.596Z,16.43
2023-05-24T13:20:39.184Z,16.31
2023-05-24T13:23:27.994Z,16.77
2023-05-24T13:26:16.465Z,16.44
2023-05-24T13:31:56.790Z,16.58
2023-05-24T13:34:44.924Z,16.48
2023-05-24T13:37:34.335Z,16.75
2023-05-24T13:40:24.939Z,16.62
2023-05-24T13:43:13.172Z,16.27
2023-05-24T13:46:01.404Z,16.89
2023-05-24T13:48:49.719Z,16.70
2023-05-24T13:51:38.137Z,16.82
2023-05-24T13:54:28.101Z,17.43
2023-05-24T13:57:17.236Z,17.00
2023-05-24T14:00:06.684Z,16.39
2023-05-24T14:02:55.807Z,16.38
2023-05-24T14:05:44.983Z,16.59
2023-05-24T14:08:33.368Z,15.75
2023-05-24T14:11:24.701Z,15.64
2023-05-24T14:17:03.785Z,16.19
2023-05-24T14:19:52.144Z,16.59
2023-05-24T14:22:40.259Z,16.11
2023-05-24T14:25:28.449Z,16.69
2023-05-24T14:28:17.973Z,15.94
2023-05-24T14:31:06.114Z,15.49
2023-05-24T14:33:54.344Z,15.47
2023-05-24T14:36:42.463Z,15.11
2023-05-24T14:39:30.657Z,15.06
2023-05-24T14:42:18.683Z,15.45
2023-05-24T14:45:09.733Z,15.47
2023-05-24T14:47:57.992Z,15.49
2023-05-24T14:50:46.102Z,15.67
2023-05-24T14:53:34.141Z,15.79
2023-05-24T14:56:22.969Z,15.69
2023-05-24T14:59:11.063Z,15.11
2023-05-24T15:02:00.499Z,15.38
2023-05-24T15:04:49.034Z,15.00
2023-05-24T15:07:37.110Z,14.92
2023-05-24T15:10:25.283Z,15.25
2023-05-24T15:13:13.695Z,15.11
2023-05-24T15:16:01.778Z,15.36
2023-05-24T15:18:51.234Z,15.26
2023-05-24T15:21:39.168Z,15.05
2023-05-24T15:24:27.408Z,14.87
2023-05-24T15:27:15.769Z,15.07
2023-05-24T15:30:04.622Z,14.60
2023-05-24T15:32:52.995Z,14.69
2023-05-24T15:35:42.455Z,14.99
2023-05-24T15:38:30.528Z,15.04
2023-05-24T15:41:18.679Z,15.09
2023-05-24T15:44:08.854Z,14.84
2023-05-24T15:46:56.978Z,14.32
2023-05-24T15:49:45.418Z,14.15
2023-05-24T15:52:35.062Z,14.16
2023-05-24T15:55:23.190Z,14.16
2023-05-24T15:58:13.384Z,14.06
2023-05-24T16:01:01.600Z,14.29
2023-05-24T16:03:49.789Z,14.39
2023-05-24T16:06:38.115Z,14.20
2023-05-24T16:09:27.521Z,14.04
2023-05-24T16:12:15.902Z,14.26
2023-05-24T16:15:04.285Z,14.19
2023-05-24T16:17:52.466Z,14.09
2023-05-24T16:20:41.064Z,14.15
2023-05-24T16:23:29.227Z,14.33
2023-05-24T16:26:18.769Z,14.50
2023-05-24T16:29:07.389Z,14.71
2023-05-24T16:31:55.480Z,14.44
2023-05-24T16:34:56.291Z,14.58
2023-05-24T16:37:45.244Z,14.30
2023-05-24T16:40:33.304Z,14.49
2023-05-24T16:43:22.845Z,14.63
2023-05-24T16:46:11.004Z,14.75
2023-05-24T16:48:59.262Z,14.86
2023-05-24T16:51:47.308Z,14.93
2023-05-24T16:54:35.720Z,14.85
2023-05-24T16:57:23.820Z,14.86
2023-05-24T17:00:15.306Z,14.76
2023-05-24T17:03:04.063Z,14.71
2023-05-24T17:05:53.263Z,14.44
2023-05-24T17:08:41.377Z,14.45
2023-05-24T17:11:29.606Z,14.36
2023-05-24T17:14:17.739Z,14.39
2023-05-24T17:17:08.918Z,14.36
2023-05-24T17:19:58.114Z,14.45
2023-05-24T17:22:46.523Z,14.36
2023-05-24T17:25:34.717Z,14.23
2023-05-24T17:28:27.192Z,14.10
2023-05-24T17:31:16.322Z,14.18
2023-05-24T17:34:05.933Z,13.97
2023-05-24T17:36:53.920Z,13.93
2023-05-24T17:39:42.367Z,13.88
2023-05-24T17:42:30.390Z,13.78
2023-05-24T17:45:18.635Z,13.66
2023-05-24T17:48:07.117Z,13.73
2023-05-24T17:50:56.884Z,13.86
2023-05-24T17:53:45.003Z,13.97
2023-05-24T17:56:33.035Z,13.93
2023-05-24T17:59:21.266Z,13.90
2023-05-24T18:02:09.249Z,13.92
2023-05-24T18:04:57.472Z,13.86
2023-05-24T18:07:46.957Z,13.85
2023-05-24T18:10:35.192Z,13.76
2023-05-24T18:13:23.871Z,13.89
2023-05-24T18:16:12.800Z,13.90
2023-05-24T18:19:00.799Z,13.70
2023-05-24T18:21:49.811Z,13.65
2023-05-24T18:24:39.269Z,13.62
2023-05-24T18:27:27.727Z,13.81
2023-05-24T18:30:16.352Z,13.93
2023-05-24T18:33:08.209Z,13.77
2023-05-24T18:35:56.947Z,13.84
2023-05-24T18:38:47.302Z,13.90
2023-05-24T18:41:36.681Z,13.68
2023-05-24T18:44:24.710Z,13.55
2023-05-24T18:47:13.021Z,13.44
2023-05-24T18:50:01.129Z,13.43
2023-05-24T18:52:49.459Z,13.44
2023-05-24T18:55:37.517Z,13.36
2023-05-24T18:58:26.880Z,13.30
2023-05-24T19:01:15.133Z,13.15
2023-05-24T19:04:03.404Z,13.11
2023-05-24T19:06:51.637Z,13.04
2023-05-24T19:09:39.730Z,12.85
2023-05-24T19:12:27.805Z,12.88
2023-05-24T19:15:17.582Z,12.84
2023-05-24T19:18:06.279Z,12.75
2023-05-24T19:20:54.456Z,12.66
2023-05-24T19:23:42.862Z,12.55
2023-05-24T19:26:30.873Z,12.51
2023-05-24T19:29:19.140Z,12.40
2023-05-24T19:32:09.042Z,12.35
2023-05-24T19:34:57.227Z,12.28
2023-05-24T19:37:45.237Z,12.23
2023-05-24T19:40:33.270Z,12.14
2023-05-24T19:43:21.592Z,12.09
2023-05-24T19:46:10.948Z,12.00
2023-05-24T19:49:00.478Z,11.97
2023-05-24T19:51:48.649Z,11.89
2023-05-24T19:54:36.662Z,11.81
2023-05-24T19:57:25.361Z,11.77
2023-05-24T20:00:14.213Z,11.71
2023-05-24T20:03:02.371Z,11.73
2023-05-24T20:05:51.878Z,11.66
2023-05-24T20:08:39.895Z,11.59
2023-05-24T20:11:28.030Z,11.55
2023-05-24T20:14:16.089Z,11.51
2023-05-24T20:17:04.253Z,11.48
2023-05-24T20:19:52.701Z,11.41
2023-05-24T20:22:42.118Z,11.39
2023-05-24T20:25:30.152Z,11.35
2023-05-24T20:28:29.645Z,11.35
2023-05-24T20:31:19.510Z,11.34
2023-05-24T20:34:07.663Z,11.31
2023-05-24T20:36:55.619Z,11.27
2023-05-24T20:39:45.018Z,11.25
2023-05-24T20:42:33.063Z,11.22
2023-05-24T20:45:21.424Z,11.27
2023-05-24T20:48:09.510Z,11.21
2023-05-24T20:50:58.074Z,11.23
2023-05-24T20:53:46.865Z,11.19
2023-05-24T20:56:36.398Z,11.14
2023-05-24T20:59:24.464Z,11.16
2023-05-24T21:02:12.548Z,11.09
2023-05-24T21:05:00.933Z,11.10
2023-05-24T21:07:48.938Z,11.06
2023-05-24T21:10:38.005Z,11.06
2023-05-24T21:13:28.214Z,11.05
2023-05-24T21:16:16.259Z,10.99
2023-05-24T21:19:04.233Z,10.99
2023-05-24T21:21:52.301Z,11.01
2023-05-24T21:24:40.332Z,10.97
2023-05-24T21:27:28.383Z,10.99
2023-05-24T21:30:17.872Z,10.93
2023-05-24T21:33:05.887Z,10.96
2023-05-24T21:35:54.117Z,11.01
2023-05-24T21:38:42.155Z,10.86
2023-05-24T21:41:30.199Z,10.88
2023-05-24T21:44:18.344Z,10.87
2023-05-24T21:47:07.878Z,10.86
2023-05-24T21:49:55.906Z,10.82
2023-05-24T21:52:43.931Z,10.86
2023-05-24T21:55:32.133Z,10.76
2023-05-24T21:58:20.198Z,10.75
2023-05-24T22:01:08.557Z,10.76
2023-05-24T22:03:58.056Z,10.73
2023-05-24T22:06:46.421Z,10.72
2023-05-24T22:09:34.914Z,10.73
2023-05-24T22:12:23.005Z,10.65
2023-05-24T22:15:12.078Z,10.63
2023-05-24T22:18:02.261Z,10.62
2023-05-24T22:20:51.730Z,10.61
2023-05-24T22:23:39.829Z,10.59
2023-05-24T22:26:28.064Z,10.60
2023-05-24T22:29:16.618Z,10.60
2023-05-24T22:32:04.933Z,10.61
2023-05-24T22:34:52.932Z,10.62
2023-05-24T22:37:42.699Z,10.61
2023-05-24T22:40:30.766Z,10.63
2023-05-24T22:43:18.828Z,10.66
2023-05-24T22:46:09.898Z,10.62
2023-05-24T22:49:02.930Z,10.58
2023-05-24T22:51:53.117Z,10.60
2023-05-24T22:54:42.558Z,10.58
2023-05-24T22:57:30.811Z,10.58
2023-05-24T23:00:20.580Z,10.57
2023-05-24T23:03:09.700Z,10.59
2023-05-24T23:06:03.767Z,10.53
2023-05-24T23:08:51.917Z,10.48
2023-05-24T23:11:42.908Z,10.43
2023-05-24T23:14:31.435Z,10.40
2023-05-24T23:17:20.589Z,10.39
2023-05-24T23:20:10.705Z,10.38
2023-05-24T23:23:02.809Z,10.41
2023-05-24T23:25:51.722Z,10.41
2023-05-24T23:28:41.324Z,10.41
2023-05-24T23:31:29.365Z,10.41
2023-05-24T23:34:17.448Z,10.36
2023-05-24T23:37:06.243Z,10.38
2023-05-24T23:39:54.320Z,10.34
2023-05-24T23:42:42.297Z,10.39
2023-05-24T23:45:32.627Z,10.31
2023-05-24T23:48:21.231Z,10.32
2023-05-24T23:51:10.161Z,10.29
2023-05-24T23:53:58.194Z,10.27
2023-05-24T23:56:46.266Z,10.21
2023-05-24T23:59:34.414Z,10.22
